This is the latest recevied weather packets stored in our database for station/object K4KJQ-13. If no packets are shown the sender has not sent any weather packets the latest 1 day(s).
| Time | Temp. | Humidity | Pressure | Rain* | Wind** | Luminosity | Snow |
|---|---|---|---|---|---|---|---|
| 1778041571 | 15° C | 100% | 0 hPa | 1.52 mm | - | - | - |
| 1778041270 | 14.44° C | 100% | 0 hPa | 1.52 mm | - | - | - |
| 1778040970 | 15° C | 100% | 0 hPa | 1.52 mm | - | - | - |
| 1778040670 | 15° C | 100% | 0 hPa | 1.78 mm | - | - | - |
| 1778040371 | 14.44° C | 100% | 0 hPa | 1.78 mm | - | - | - |
| 1778040070 | 14.44° C | 100% | 0 hPa | 1.78 mm | - | - | - |
| 1778039770 | 14.44° C | 100% | 0 hPa | 1.52 mm | - | - | - |
| 1778039470 | 15.56° C | 100% | 0 hPa | 1.27 mm | - | - | - |
| 1778037370 | 16.11° C | 100% | 0 hPa | 0.51 mm | - | - | - |
| 1778035570 | 17.78° C | 100% | 0 hPa | 0.25 mm | - | - | - |
| 1778035270 | 18.33° C | 100% | 0 hPa | 0.25 mm | - | - | - |
| 1778034670 | 17.22° C | 100% | 0 hPa | 0.25 mm | - | - | - |
| 1778034070 | 17.78° C | 100% | 0 hPa | 0 mm | - | - | - |
| 1778031970 | 17.22° C | 100% | 0 hPa | 0.25 mm | - | - | - |
| 1778031670 | 16.67° C | 100% | 0 hPa | 0.51 mm | - | - | - |
| 1778030771 | 16.67° C | 100% | 0 hPa | 0.51 mm | - | - | - |
| 1778030471 | 17.22° C | 100% | 0 hPa | 0.51 mm | - | - | - |
| 1778028671 | 17.22° C | 100% | 0 hPa | 0.25 mm | - | - | - |
| 1778028371 | 17.22° C | 100% | 0 hPa | 0.25 mm | - | - | - |
| 1778028071 | 18.33° C | 100% | 0 hPa | 0 mm | - | - | - |
| 1778027771 | 18.33° C | 100% | 0 hPa | 0 mm | - | - | - |
| 1778027471 | 18.89° C | 100% | 0 hPa | 0 mm | - | - | - |
| 1778027171 | 18.89° C | 100% | 0 hPa | 0 mm | - | - | - |
| 1778026871 | 18.89° C | 100% | 0 hPa | 0 mm | - | - | - |
| 1778026571 | 18.89° C | 100% | 0 hPa | 0 mm | - | - | - |
* Rain latest hour (hover to see other rain measurements)
** Current wind speed in m/s (hover to see current wind gust speed)